Time;durP1;ratioP1;P1;durP2;ratioP2;P2;SDS_P1;SDS_P2;PMS_P1;PMS_P2;Temp;Humidity;BMP_temperature;BMP_pressure;BME280_temperature;BME280_humidity;BME280_pressure;Samples;Min_cycle;Max_cycle;Signal;HPM_P1;HPM_P2
2022/05/17 00:01:31;;;;;;;6.00;3.70;;;;;;;15.40;100.00;62446.34;5092955;28;20200;-73
2022/05/17 00:03:59;;;;;;;5.27;3.40;;;;;;;15.31;100.00;62436.66;5092504;28;20227;-73
2022/05/17 00:06:29;;;;;;;6.73;3.30;;;;;;;15.26;100.00;62436.41;5089482;28;20240;-73
2022/05/17 00:08:57;;;;;;;4.13;3.47;;;;;;;15.27;100.00;62432.38;5087308;28;20678;-73
2022/05/17 00:11:25;;;;;;;5.77;3.50;;;;;;;15.00;100.00;62408.97;5092266;28;20560;-74
2022/05/17 00:13:52;;;;;;;5.10;3.43;;;;;;;15.25;100.00;62430.72;5092151;28;20199;-72
2022/05/17 00:16:19;;;;;;;6.43;3.17;;;;;;;15.28;100.00;62433.44;5090897;28;20200;-74
2022/05/17 00:18:46;;;;;;;5.40;3.57;;;;;;;15.28;100.00;62436.00;5092853;28;20231;-73
2022/05/17 00:21:14;;;;;;;7.03;3.77;;;;;;;15.15;100.00;62419.44;5094344;28;20195;-73
2022/05/17 00:23:42;;;;;;;8.63;3.40;;;;;;;15.02;100.00;62408.00;5092006;28;20670;-72
2022/05/17 00:26:12;;;;;;;6.90;3.90;;;;;;;15.07;100.00;62413.41;5091928;28;20195;-72
2022/05/17 00:28:42;;;;;;;6.07;3.40;;;;;;;15.10;100.00;62414.06;5092293;28;20269;-73
2022/05/17 00:31:10;;;;;;;8.33;3.70;;;;;;;15.07;100.00;62411.34;5092156;28;20222;-73
2022/05/17 00:33:38;;;;;;;6.03;3.70;;;;;;;15.04;100.00;62407.59;5092046;28;20207;-72
2022/05/17 00:36:05;;;;;;;7.50;3.77;;;;;;;14.99;100.00;62402.22;5092026;28;20261;-73
2022/05/17 00:38:33;;;;;;;4.77;4.00;;;;;;;15.12;100.00;62418.78;5091752;28;20730;-73
2022/05/17 00:41:01;;;;;;;8.97;4.57;;;;;;;15.13;100.00;62419.88;5091885;28;20203;-73
2022/05/17 00:44:42;;;;;;;11.03;5.17;;;;;;;15.07;100.00;62413.41;5071542;28;20645;-73
2022/05/17 00:46:17;;;;;;;8.67;5.53;;;;;;;15.04;100.00;62408.16;5071547;28;20227;-72
2022/05/17 00:48:44;;;;;;;9.30;6.10;;;;;;;14.93;100.00;62395.78;5071168;28;20219;-73
2022/05/17 00:51:11;;;;;;;8.03;5.03;;;;;;;14.78;100.00;62379.63;5071429;28;20270;-73
2022/05/17 00:53:39;;;;;;;11.27;5.93;;;;;;;14.69;100.00;62369.97;5071404;28;20208;-73
2022/05/17 00:56:11;;;;;;;8.80;5.97;;;;;;;14.73;100.00;62379.38;5071398;28;20556;-74
2022/05/17 00:58:43;;;;;;;7.00;5.10;;;;;;;14.79;100.00;62383.28;5071223;28;20772;-73
2022/05/17 01:01:13;;;;;;;11.23;5.40;;;;;;;14.76;100.00;62383.16;5071475;28;20694;-72
2022/05/17 01:03:44;;;;;;;4.97;3.83;;;;;;;14.84;100.00;62391.75;5071691;28;20196;-73
2022/05/17 01:06:11;;;;;;;11.53;5.37;;;;;;;14.79;100.00;62381.25;5071746;28;20218;-73
2022/05/17 01:08:40;;;;;;;9.07;5.27;;;;;;;14.67;100.00;62370.38;5071652;28;20203;-72
2022/05/17 01:11:08;;;;;;;8.47;4.47;;;;;;;14.76;100.00;62380.03;5071532;28;20714;-73
2022/05/17 01:16:20;;;;;;;6.20;4.20;;;;;;;14.68;100.00;62368.88;5081021;28;20286;-73
2022/05/17 01:18:47;;;;;;;8.53;4.40;;;;;;;14.56;100.00;62358.53;5091358;28;20285;-72
2022/05/17 01:21:15;;;;;;;7.97;4.40;;;;;;;14.60;100.00;62360.28;5093944;28;20203;-73
2022/05/17 01:23:44;;;;;;;7.73;3.90;;;;;;;14.63;100.00;62366.06;5095518;28;20192;-74
2022/05/17 01:26:18;;;;;;;5.37;4.40;;;;;;;14.78;100.00;62385.31;5095492;28;20208;-72
2022/05/17 01:28:45;;;;;;;7.93;4.37;;;;;;;14.77;100.00;62378.56;5095389;28;20648;-73
2022/05/17 01:31:13;;;;;;;7.93;4.03;;;;;;;14.72;100.00;62368.59;5095695;28;20215;-73
2022/05/17 01:33:40;;;;;;;4.30;3.90;;;;;;;14.58;100.00;62361.22;5095585;28;20200;-72
2022/05/17 01:36:12;;;;;;;5.77;4.03;;;;;;;14.60;100.00;62360.28;5095622;28;20196;-74
2022/05/17 01:38:45;;;;;;;7.13;4.17;;;;;;;14.51;100.00;62350.59;5094893;28;20326;-72
2022/05/17 01:41:13;;;;;;;7.33;4.20;;;;;;;14.49;100.00;62354.09;5095144;28;20199;-72
2022/05/17 01:43:40;;;;;;;7.90;4.73;;;;;;;14.02;100.00;62304.09;5095294;28;20200;-73
2022/05/17 01:46:08;;;;;;;14.93;4.93;;;;;;;14.41;100.00;62342.41;5095158;28;20207;-74
2022/05/17 01:48:36;;;;;;;7.13;4.40;;;;;;;14.31;100.00;62332.19;5095173;28;20199;-73
2022/05/17 01:51:03;;;;;;;6.83;4.57;;;;;;;13.97;100.00;62296.16;5094877;28;20658;-72
2022/05/17 01:53:30;;;;;;;8.10;4.47;;;;;;;14.26;100.00;62324.22;5094976;28;20195;-71
2022/05/17 01:56:01;;;;;;;6.53;4.53;;;;;;;14.29;100.00;62328.00;5094592;28;20199;-72
2022/05/17 01:58:29;;;;;;;5.93;4.40;;;;;;;14.28;100.00;62326.94;5094700;28;20257;-73
2022/05/17 02:00:56;;;;;;;7.40;4.87;;;;;;;14.27;100.00;62328.41;5094857;28;20196;-73
2022/05/17 02:03:23;;;;;;;8.17;4.93;;;;;;;14.33;100.00;62334.88;5094956;28;20284;-73
2022/05/17 02:05:50;;;;;;;9.63;5.20;;;;;;;13.97;100.00;62293.59;5094932;28;20280;-74
2022/05/17 02:08:18;;;;;;;8.43;4.77;;;;;;;14.17;100.00;62317.09;5094343;28;20273;-74
2022/05/17 02:10:45;;;;;;;6.47;4.73;;;;;;;14.10;100.00;62310.13;5094839;28;20261;-72
2022/05/17 02:13:13;;;;;;;9.03;5.30;;;;;;;14.17;100.00;62314.53;5094756;28;20276;-73
2022/05/17 02:15:40;;;;;;;13.17;5.17;;;;;;;14.10;100.00;62312.16;5094778;28;20200;-73
2022/05/17 02:18:07;;;;;;;8.77;5.47;;;;;;;14.00;100.00;62301.41;5094398;28;20638;-74
2022/05/17 02:20:35;;;;;;;11.13;5.33;;;;;;;14.17;100.00;62314.53;5094292;28;20243;-73
2022/05/17 02:23:02;;;;;;;7.77;5.10;;;;;;;14.06;100.00;62307.84;5094376;28;20196;-74
2022/05/17 02:25:29;;;;;;;17.80;5.80;;;;;;;14.02;100.00;62298.44;5100225;28;20268;-73
2022/05/17 02:27:55;;;;;;;8.57;5.13;;;;;;;13.90;100.00;62286.06;5094659;28;20199;-72
2022/05/17 02:30:24;;;;;;;9.10;4.80;;;;;;;13.96;100.00;62292.53;5094137;28;20654;-74
2022/05/17 02:32:51;;;;;;;7.33;5.63;;;;;;;13.92;100.00;62290.78;5093289;28;20623;-74
2022/05/17 02:35:18;;;;;;;10.27;5.37;;;;;;;13.84;100.00;62282.19;5094144;28;20642;-72
2022/05/17 02:37:46;;;;;;;11.37;5.57;;;;;;;13.89;100.00;62282.44;5093935;28;20280;-72
2022/05/17 02:40:13;;;;;;;10.33;4.70;;;;;;;14.03;100.00;62297.47;5076094;28;20246;-72
2022/05/17 02:42:42;;;;;;;7.77;4.03;;;;;;;13.92;100.00;62288.22;5094063;28;20580;-74
2022/05/17 02:45:11;;;;;;;6.27;4.20;;;;;;;13.84;100.00;62282.19;5094131;28;20257;-73
2022/05/17 02:47:39;;;;;;;8.53;4.60;;;;;;;13.82;100.00;62280.03;5094104;28;20196;-73
2022/05/17 02:50:09;;;;;;;7.20;4.23;;;;;;;13.80;100.00;62277.34;5093696;28;20735;-74
2022/05/17 02:52:36;;;;;;;7.77;4.30;;;;;;;13.71;100.00;62265.63;5093950;28;20257;-73
2022/05/17 02:55:03;;;;;;;10.07;4.53;;;;;;;13.70;100.00;62264.56;5093654;28;20666;-72
2022/05/17 02:57:31;;;;;;;18.80;5.77;;;;;;;13.60;100.00;62256.38;5094241;28;20206;-72
2022/05/17 02:59:57;;;;;;;6.67;4.40;;;;;;;13.61;100.00;62257.44;5093561;28;20224;-73
2022/05/17 03:02:25;;;;;;;11.73;5.03;;;;;;;13.58;100.00;62257.31;5093474;28;20286;-74
2022/05/17 03:04:54;;;;;;;7.23;4.30;;;;;;;13.48;100.00;62246.06;5093515;28;20287;-73
2022/05/17 03:07:21;;;;;;;5.77;4.30;;;;;;;13.53;100.00;62246.31;5093609;28;20204;-74
2022/05/17 03:09:48;;;;;;;9.03;4.73;;;;;;;13.49;100.00;62252.25;5093501;28;20204;-75
2022/05/17 03:12:15;;;;;;;7.90;4.30;;;;;;;13.43;100.00;62238.13;5092885;28;20257;-73
2022/05/17 03:14:43;;;;;;;6.50;4.40;;;;;;;13.46;100.00;62241.34;5093330;28;20195;-72
2022/05/17 03:17:11;;;;;;;5.73;4.10;;;;;;;13.39;100.00;62236.38;5093214;28;20249;-74
2022/05/17 03:19:39;;;;;;;8.33;4.10;;;;;;;13.38;100.00;62232.75;5093102;28;20238;-74
2022/05/17 03:22:08;;;;;;;6.43;3.93;;;;;;;12.76;100.00;62166.66;5093787;28;20200;-73
2022/05/17 03:24:35;;;;;;;4.80;4.17;;;;;;;13.38;100.00;62230.19;5093566;28;20282;-73
2022/05/17 03:27:02;;;;;;;4.97;3.97;;;;;;;13.29;100.00;62220.50;5093358;28;20277;-73
2022/05/17 03:29:31;;;;;;;6.87;4.30;;;;;;;13.27;100.00;62218.91;5093120;28;20203;-73
2022/05/17 03:32:01;;;;;;;14.10;4.43;;;;;;;13.24;100.00;62220.28;5092803;28;20593;-73
2022/05/17 03:34:28;;;;;;;8.43;4.23;;;;;;;13.15;100.00;62210.59;5093000;28;20210;-73
2022/05/17 03:36:54;;;;;;;6.53;4.57;;;;;;;13.26;100.00;62222.94;5092948;28;20191;-73
2022/05/17 03:39:23;;;;;;;7.60;4.47;;;;;;;13.28;100.00;62222.00;5092843;28;20239;-72
2022/05/17 03:41:50;;;;;;;6.13;4.20;;;;;;;13.45;100.00;62238.25;5092865;28;20252;-73
2022/05/17 03:44:17;;;;;;;4.87;4.07;;;;;;;13.46;100.00;62239.31;5092219;28;20253;-72
2022/05/17 03:46:44;;;;;;;10.33;3.73;;;;;;;13.52;100.00;62247.78;5092999;28;20226;-73
2022/05/17 03:49:11;;;;;;;7.53;4.20;;;;;;;13.41;100.00;62230.84;5092771;28;20204;-74
2022/05/17 03:51:38;;;;;;;5.37;4.03;;;;;;;13.56;100.00;62249.53;5092802;28;20203;-73
2022/05/17 03:54:07;;;;;;;13.40;4.47;;;;;;;13.70;100.00;62269.69;5092616;28;20682;-73
2022/05/17 03:56:35;;;;;;;8.10;4.07;;;;;;;13.70;100.00;62264.56;5092716;28;20206;-72
2022/05/17 03:59:02;;;;;;;9.90;4.33;;;;;;;13.75;100.00;62269.94;5092264;28;20660;-73
2022/05/17 04:01:29;;;;;;;4.40;3.97;;;;;;;13.88;100.00;62283.38;5092416;28;20665;-74
2022/05/17 04:03:55;;;;;;;6.57;4.27;;;;;;;14.00;100.00;62296.81;5092325;28;20192;-73
2022/05/17 04:06:22;;;;;;;7.10;4.37;;;;;;;14.10;100.00;62312.69;5092445;28;20583;-75
2022/05/17 04:08:51;;;;;;;6.60;4.07;;;;;;;14.19;100.00;62317.22;5092476;28;20501;-73
2022/05/17 04:11:18;;;;;;;7.27;4.30;;;;;;;14.28;100.00;62329.50;5091998;28;20211;-72
2022/05/17 04:13:46;;;;;;;7.63;4.10;;;;;;;14.34;100.00;62332.84;5092278;28;20199;-73
2022/05/17 04:16:13;;;;;;;7.37;4.10;;;;;;;14.31;100.00;62330.16;5092417;28;20199;-74
2022/05/17 04:18:40;;;;;;;10.60;4.80;;;;;;;14.71;100.00;62372.09;5092763;28;20203;-73
2022/05/17 04:21:07;;;;;;;9.50;4.53;;;;;;;14.61;100.00;62361.88;5092045;28;20778;-73
2022/05/17 04:23:37;;;;;;;11.57;5.00;;;;;;;14.85;100.00;62387.16;5092457;28;20298;-74
2022/05/17 04:26:10;;;;;;;13.20;5.60;;;;;;;15.12;100.00;62421.88;5092647;28;20199;-74
2022/05/17 04:28:37;;;;;;;20.03;7.10;;;;;;;15.18;100.00;62425.22;5097394;28;20219;-73
2022/05/17 04:31:05;;;;;;;16.47;7.13;;;;;;;15.08;100.00;62412.44;5094294;28;20219;-74
2022/05/17 04:33:35;;;;;;;15.30;7.50;;;;;;;14.96;100.00;62401.56;5091963;28;20287;-73
2022/05/17 04:36:04;;;;;;;16.53;7.03;;;;;;;15.10;100.00;62414.59;5091841;28;20728;-72
2022/05/17 04:38:31;;;;;;;27.27;8.70;;;;;;;14.18;100.00;62321.28;5091548;28;20364;-73
2022/05/17 04:40:59;;;;;;;12.40;7.07;;;;;;;15.14;100.00;62420.94;5091889;28;20227;-75
2022/05/17 04:43:26;;;;;;;22.53;8.57;;;;;;;15.48;100.00;62460.09;5092026;28;20249;-74
2022/05/17 04:45:54;;;;;;;16.33;8.50;;;;;;;15.36;100.00;62442.03;5091970;28;20199;-73
2022/05/17 04:48:24;;;;;;;17.33;8.83;;;;;;;15.52;100.00;62464.41;5091651;28;20192;-72
2022/05/17 04:50:51;;;;;;;13.50;7.70;;;;;;;15.54;100.00;62461.44;5091554;28;20205;-74
2022/05/17 04:53:18;;;;;;;24.97;8.83;;;;;;;15.80;100.00;62488.88;5091566;28;20206;-72
2022/05/17 04:55:44;;;;;;;19.80;8.43;;;;;;;16.00;100.00;62513.53;5091240;28;20246;-74
2022/05/17 04:58:12;;;;;;;23.53;8.07;;;;;;;15.95;100.00;62505.59;5091613;28;20627;-73
2022/05/17 05:00:39;;;;;;;24.83;8.47;;;;;;;16.08;100.00;62521.59;5091622;28;20671;-73
2022/05/17 05:03:06;;;;;;;20.73;8.87;;;;;;;15.85;100.00;62499.97;5091678;28;20199;-72
2022/05/17 05:05:34;;;;;;;18.30;8.20;;;;;;;16.52;100.00;62565.94;5091524;28;20256;-74
2022/05/17 05:08:01;;;;;;;21.87;9.27;;;;;;;16.59;100.00;62570.91;5091419;28;20203;-72
2022/05/17 05:10:28;;;;;;;26.10;8.70;;;;;;;16.53;100.00;62569.56;5091356;28;20195;-74
2022/05/17 05:12:54;;;;;;;26.43;8.77;;;;;;;16.75;100.00;62593.28;5091609;28;20195;-72
2022/05/17 05:15:21;;;;;;;22.90;8.30;;;;;;;16.60;100.00;62574.56;5091424;28;20217;-73
2022/05/17 05:17:48;;;;;;;19.70;8.93;;;;;;;16.62;100.00;62576.72;5091246;28;20229;-74
2022/05/17 05:20:16;;;;;;;17.73;8.60;;;;;;;16.69;100.00;62584.78;5091210;28;20227;-74
2022/05/17 05:22:45;;;;;;;21.70;9.57;;;;;;;16.81;100.00;62597.19;5091449;28;20307;-73
2022/05/17 05:25:14;;;;;;;19.20;9.53;;;;;;;17.01;100.00;62618.72;5091077;28;20688;-72
2022/05/17 05:27:42;;;;;;;26.40;10.03;;;;;;;17.25;100.00;62644.59;5091322;28;20204;-73
2022/05/17 05:30:12;;;;;;;33.50;10.77;;;;;;;17.49;100.00;62667.94;5091149;28;20203;-74
2022/05/17 05:32:38;;;;;;;49.20;20.17;;;;;;;17.56;100.00;62677.53;5091189;28;20592;-73
2022/05/17 05:35:06;;;;;;;23.37;13.07;;;;;;;17.92;100.00;62715.81;5091393;28;20207;-73
2022/05/17 05:37:34;;;;;;;20.63;12.30;;;;;;;18.18;100.00;62743.88;5091834;28;20195;-74
2022/05/17 05:40:03;;;;;;;30.00;9.80;;;;;;;18.20;100.00;62751.19;5091822;28;20250;-72
2022/05/17 05:42:31;;;;;;;27.77;9.67;;;;;;;17.86;100.00;62709.34;5091404;28;20196;-73
2022/05/17 05:44:58;;;;;;;23.30;8.67;;;;;;;18.43;100.00;62776.03;5091247;28;20195;-72
2022/05/17 05:47:26;;;;;;;20.53;8.87;;;;;;;18.62;100.00;62788.81;5091563;28;20200;-72
2022/05/17 05:49:53;;;;;;;32.57;9.13;;;;;;;18.44;100.00;62771.97;5091021;28;20207;-72
2022/05/17 05:52:20;;;;;;;20.17;7.93;;;;;;;18.61;100.00;62785.16;5090870;28;20604;-73
2022/05/17 05:54:47;;;;;;;27.93;8.10;;;;;;;18.91;100.00;62827.88;5091166;28;20261;-73
2022/05/17 05:57:15;;;;;;;19.83;8.07;;;;;;;19.04;100.00;62836.75;5091350;28;20195;-74
2022/05/17 05:59:42;;;;;;;20.83;7.93;;;;;;;19.23;100.00;62861.91;5090960;28;20257;-73
2022/05/17 06:02:10;;;;;;;22.67;8.10;;;;;;;18.94;100.00;62833.13;5090986;28;20670;-73
2022/05/17 06:04:38;;;;;;;17.83;8.07;;;;;;;18.89;100.00;62823.13;5091213;28;20249;-73
2022/05/17 06:07:06;;;;;;;24.93;8.33;;;;;;;19.03;100.00;62835.66;5091494;28;20196;-72
2022/05/17 06:09:32;;;;;;;21.83;8.37;;;;;;;19.47;100.00;62882.13;5094750;28;20206;-73
2022/05/17 06:11:59;;;;;;;28.17;8.50;;;;;;;19.70;100.00;62907.00;5094362;28;20264;-73
2022/05/17 06:14:28;;;;;;;22.53;7.87;;;;;;;20.00;100.00;62939.41;5095226;28;20320;-73
2022/05/17 06:16:55;;;;;;;16.13;7.80;;;;;;;20.17;100.00;62958.34;5095504;28;20257;-72
2022/05/17 06:19:24;;;;;;;17.37;7.20;;;;;;;20.03;100.00;62947.84;5095184;28;20217;-72
2022/05/17 06:21:50;;;;;;;17.63;7.87;;;;;;;20.19;100.00;62960.53;5094389;28;20235;-74
2022/05/17 06:24:17;;;;;;;24.20;8.30;;;;;;;20.30;100.00;62971.34;5094862;28;20203;-74
2022/05/17 06:26:44;;;;;;;33.67;9.30;;;;;;;20.69;100.00;63018.69;5094391;28;20208;-74
2022/05/17 06:29:11;;;;;;;21.80;7.70;;;;;;;20.64;100.00;63008.66;5094276;28;20548;-73
2022/05/17 06:31:40;;;;;;;25.03;8.07;;;;;;;20.62;100.00;63006.47;5097366;28;20215;-72
2022/05/17 06:34:07;;;;;;;14.10;7.57;;;;;;;20.78;100.00;63025.84;5093895;28;20253;-74
2022/05/17 06:36:33;;;;;;;24.90;8.37;;;;;;;20.77;100.00;63022.69;5094053;28;20253;-73
2022/05/17 06:39:01;;;;;;;16.60;7.93;;;;;;;21.22;100.00;63075.50;5093622;28;20654;-74
2022/05/17 06:41:27;;;;;;;19.70;8.10;;;;;;;21.22;100.00;63070.88;5094262;28;20231;-74
2022/05/17 06:43:54;;;;;;;14.47;7.93;;;;;;;21.61;100.00;63117.75;5094139;28;20244;-74
2022/05/17 06:46:21;;;;;;;16.17;8.13;;;;;;;21.84;100.00;63137.47;5093867;28;20195;-73
2022/05/17 06:48:49;;;;;;;20.10;8.70;;;;;;;21.92;100.00;63146.13;5093813;28;20195;-73
2022/05/17 06:51:16;;;;;;;12.53;7.53;;;;;;;21.63;100.00;63114.72;5093689;28;20199;-73
2022/05/17 06:53:43;;;;;;;13.33;7.83;;;;;;;21.52;100.00;63103.34;5093498;28;20195;-73
2022/05/17 06:56:10;;;;;;;14.10;7.80;;;;;;;21.66;100.00;63118.50;5093831;28;20211;-73
2022/05/17 06:58:37;;;;;;;15.07;7.40;;;;;;;21.78;100.00;63131.50;5093665;28;20192;-73
2022/05/17 07:01:04;;;;;;;17.43;7.47;;;;;;;22.15;100.00;63171.06;5093238;28;20284;-74
2022/05/17 07:03:31;;;;;;;22.77;7.33;;;;;;;22.30;100.00;63187.28;5093477;28;20278;-73
2022/05/17 07:05:59;;;;;;;20.83;7.73;;;;;;;22.51;100.00;63212.66;5093107;28;20224;-71
2022/05/17 07:08:26;;;;;;;17.50;7.40;;;;;;;22.64;100.00;63226.75;5093256;28;20200;-72
2022/05/17 07:13:37;;;;;;;14.07;6.63;;;;;;;22.91;100.00;63252.31;5093661;28;20201;-72
2022/05/17 07:16:05;;;;;;;27.93;8.87;;;;;;;22.96;100.00;63257.75;5093141;28;20203;-74
2022/05/17 07:18:32;;;;;;;16.87;7.03;;;;;;;23.05;100.00;63268.03;5092813;28;20245;-73
2022/05/17 07:21:01;;;;;;;12.97;6.20;;;;;;;23.25;100.00;63289.72;5092975;28;20230;-74
2022/05/17 07:23:27;;;;;;;17.27;6.90;;;;;;;23.52;100.00;63318.47;5092991;28;20242;-73
2022/05/17 07:25:55;;;;;;;16.10;6.60;;;;;;;23.90;100.00;63359.69;5093024;28;20222;-73
2022/05/17 07:28:23;;;;;;;11.97;6.33;;;;;;;23.87;100.00;63356.44;5093087;28;20282;-73
2022/05/17 07:30:51;;;;;;;17.47;6.77;;;;;;;23.61;100.00;63327.69;5092938;28;20219;-73
2022/05/17 07:33:19;;;;;;;14.47;5.77;;;;;;;23.30;100.00;63295.13;5092741;28;20658;-73
2022/05/17 07:35:46;;;;;;;15.33;5.93;;;;;;;23.18;100.00;63281.59;5092889;28;20197;-72
2022/05/17 07:38:15;;;;;;;16.23;6.40;;;;;;;23.57;100.00;63323.91;5093044;28;20268;-72
2022/05/17 07:40:43;;;;;;;14.90;6.90;;;;;;;23.58;100.00;63322.38;5092911;28;20257;-73
2022/05/17 07:43:11;;;;;;;16.80;6.57;;;;;;;23.48;100.00;63308.94;5092687;28;20199;-73
2022/05/17 07:45:38;;;;;;;18.73;6.20;;;;;;;23.33;100.00;63297.88;5092806;28;20265;-73
2022/05/17 07:48:05;;;;;;;12.30;6.37;;;;;;;23.64;100.00;63336.16;5092441;28;20201;-73
2022/05/17 07:50:32;;;;;;;20.60;7.13;;;;;;;23.35;100.00;63297.44;5092459;28;20200;-73
2022/05/17 07:53:06;;;;;;;14.17;6.60;;;;;;;24.13;100.00;63384.66;5092231;28;20658;-73
2022/05/17 07:55:50;;;;;;;21.17;7.17;;;;;;;24.13;100.00;63389.31;5092389;28;20198;-73
2022/05/17 07:58:20;;;;;;;14.07;7.00;;;;;;;24.49;100.00;63423.19;5092296;28;20199;-73
2022/05/17 08:00:47;;;;;;;20.23;6.90;;;;;;;24.60;100.00;63431.97;5093102;28;20359;-75
2022/05/17 08:03:16;;;;;;;11.07;6.80;;;;;;;24.41;100.00;63414.50;5092255;28;20617;-74
2022/05/17 08:05:44;;;;;;;19.97;6.90;;;;;;;24.73;100.00;63448.72;5092258;28;20194;-73
2022/05/17 08:08:11;;;;;;;27.10;7.17;;;;;;;24.77;100.00;63453.06;5092498;28;20254;-73
2022/05/17 08:10:41;;;;;;;22.83;6.87;;;;;;;24.73;100.00;63448.72;5092410;28;20258;-74
2022/05/17 08:13:08;;;;;;;14.07;5.87;;;;;;;24.53;100.00;63427.53;5092433;28;20249;-74
2022/05/17 08:15:35;;;;;;;14.07;6.27;;;;;;;24.65;100.00;63437.41;5091854;28;20200;-73
2022/05/17 08:18:04;;;;;;;14.77;6.20;;;;;;;24.65;100.00;63440.03;5092086;28;20202;-75
2022/05/17 08:20:33;;;;;;;22.53;6.20;;;;;;;24.99;100.00;63477.47;5092065;28;20196;-73
2022/05/17 08:23:00;;;;;;;19.53;6.70;;;;;;;25.44;100.00;63525.28;5092113;28;20199;-73
2022/05/17 08:28:13;;;;;;;14.40;6.00;;;;;;;25.49;100.00;63525.50;5092140;28;20209;-73
2022/05/17 08:30:40;;;;;;;19.27;6.43;;;;;;;26.15;100.00;63601.91;5091252;28;20220;-72
2022/05/17 08:33:19;;;;;;;16.53;5.83;;;;;;;26.63;100.00;63654.09;5092678;28;20227;-74
2022/05/17 08:35:50;;;;;;;15.97;5.43;;;;;;;26.69;100.00;63660.63;5091877;28;20196;-73
2022/05/17 08:38:19;;;;;;;13.97;5.87;;;;;;;26.43;100.00;63637.59;5091838;28;20191;-73
2022/05/17 08:40:58;;;;;;;14.33;5.53;;;;;;;26.43;100.00;63634.97;5091905;28;20231;-73
2022/05/17 08:43:30;;;;;;;13.27;5.43;;;;;;;26.50;100.00;63639.97;5091743;28;20253;-73
2022/05/17 08:46:11;;;;;;;18.77;5.90;;;;;;;27.26;100.00;63719.50;5091950;28;20200;-73
2022/05/17 08:48:45;;;;;;;13.07;5.03;;;;;;;27.43;100.00;63743.78;5088905;28;20191;-73
2022/05/17 08:51:17;;;;;;;11.07;5.37;;;;;;;27.56;100.00;63755.31;5091468;28;20210;-73
2022/05/17 08:53:46;;;;;;;13.63;5.43;;;;;;;27.57;100.00;63761.63;5091582;28;20196;-73
2022/05/17 08:56:16;;;;;;;11.93;5.43;;;;;;;28.14;100.00;63817.38;5091497;28;20633;-75
2022/05/17 08:58:48;;;;;;;10.60;5.10;;;;;;;28.28;100.00;63832.63;5091446;28;20369;-73
2022/05/17 09:01:21;;;;;;;10.57;4.67;;;;;;;28.21;99.80;63822.91;5091208;28;20733;-74
2022/05/17 09:04:03;;;;;;;9.47;5.00;;;;;;;27.94;100.00;63798.75;5091494;28;20586;-74
2022/05/17 09:06:36;;;;;;;16.23;5.70;;;;;;;27.81;100.00;63784.06;5091249;28;20553;-72
2022/05/17 09:09:07;;;;;;;9.40;4.70;;;;;;;28.31;100.00;63835.88;5091265;28;20256;-72
2022/05/17 09:11:44;;;;;;;12.83;4.43;;;;;;;28.49;95.25;63855.50;5092194;28;20204;-75
2022/05/17 09:14:17;;;;;;;14.00;4.90;;;;;;;28.48;89.52;63854.41;5091735;28;20671;-74
2022/05/17 09:16:48;;;;;;;8.70;5.37;;;;;;;28.24;90.12;63828.25;5091481;28;20211;-74
2022/05/17 09:19:16;;;;;;;10.77;4.37;;;;;;;28.40;89.32;63845.69;5091131;28;20196;-74
2022/05/17 09:21:44;;;;;;;13.73;4.60;;;;;;;28.48;86.14;63851.78;5091091;28;20714;-72
2022/05/17 09:24:13;;;;;;;7.13;3.80;;;;;;;28.74;72.39;63879.56;5091205;28;20668;-74
2022/05/17 09:26:41;;;;;;;11.43;3.93;;;;;;;28.90;68.20;63900.16;5091533;28;20200;-74
2022/05/17 09:29:17;;;;;;;5.93;3.60;;;;;;;28.65;63.79;63867.16;5091139;28;20200;-74
2022/05/17 09:31:53;;;;;;;11.57;3.53;;;;;;;29.33;61.36;63943.31;5091133;28;20220;-75
2022/05/17 09:34:29;;;;;;;5.07;2.83;;;;;;;29.39;56.60;63955.66;5090999;28;20200;-73
2022/05/17 09:37:00;;;;;;;6.17;3.20;;;;;;;29.25;57.72;63937.22;5091507;28;20196;-74
2022/05/17 09:39:27;;;;;;;6.97;3.10;;;;;;;29.12;53.49;63920.97;5091163;28;20627;-74
2022/05/17 09:41:57;;;;;;;7.60;3.30;;;;;;;28.52;54.58;63856.13;5092924;28;20283;-74
2022/05/17 09:44:27;;;;;;;6.70;3.17;;;;;;;28.91;54.11;63898.63;5095038;28;20209;-73
2022/05/17 09:46:59;;;;;;;5.53;3.30;;;;;;;28.76;53.45;63884.91;5095161;28;20197;-73
2022/05/17 09:52:34;;;;;;;4.57;3.33;;;;;;;29.95;50.04;64013.56;5094959;28;20285;-73
2022/05/17 09:55:14;;;;;;;6.40;3.17;;;;;;;29.54;47.56;63968.84;5094705;28;20205;-72
2022/05/17 09:57:56;;;;;;;3.93;2.60;;;;;;;29.43;43.90;63956.84;5095193;28;20271;-73
2022/05/17 10:00:28;;;;;;;9.20;2.80;;;;;;;29.86;46.26;64001.13;5094766;28;20200;-73
2022/05/17 10:03:00;;;;;;;8.77;3.00;;;;;;;29.95;47.29;64010.94;5094606;28;20292;-73
2022/05/17 10:05:30;;;;;;;4.53;2.90;;;;;;;29.30;46.76;63942.69;5094523;28;20207;-73
2022/05/17 10:08:02;;;;;;;9.60;3.10;;;;;;;28.78;48.47;63886.53;5094593;28;20677;-74
2022/05/17 10:10:35;;;;;;;5.43;3.03;;;;;;;29.46;48.01;63960.13;5094517;28;20587;-73
2022/05/17 10:13:16;;;;;;;10.30;3.70;;;;;;;30.08;49.15;64025.13;5094446;28;20205;-75
2022/05/17 10:15:49;;;;;;;8.57;3.30;;;;;;;30.16;46.42;64036.47;5094708;28;20195;-74
2022/05/17 10:18:39;;;;;;;8.27;3.20;;;;;;;29.93;47.90;64008.75;5094348;28;20194;-76
2022/05/17 10:21:12;;;;;;;6.23;2.83;;;;;;;30.06;45.22;64022.94;5094397;28;20202;-73
2022/05/17 10:23:46;;;;;;;4.43;2.77;;;;;;;30.09;45.84;64028.81;5094312;28;20196;-74
2022/05/17 10:26:16;;;;;;;9.13;3.33;;;;;;;30.43;46.17;64065.91;5093955;28;20690;-74
2022/05/17 10:28:52;;;;;;;8.60;3.60;;;;;;;30.42;46.21;64059.59;5094434;28;20218;-74
2022/05/17 10:31:25;;;;;;;5.20;2.83;;;;;;;30.24;45.58;64045.19;5094016;28;20219;-74
2022/05/17 10:34:10;;;;;;;6.13;3.37;;;;;;;29.82;44.33;63999.41;5094898;28;20199;-74
2022/05/17 10:36:50;;;;;;;5.50;2.80;;;;;;;29.72;46.82;63989.03;5094834;28;20287;-74
2022/05/17 10:39:28;;;;;;;6.33;3.20;;;;;;;29.50;43.90;63962.38;5094180;28;20298;-74
2022/05/17 10:41:56;;;;;;;8.37;3.17;;;;;;;29.52;44.61;63966.66;5093994;28;20735;-73
2022/05/17 10:44:23;;;;;;;7.23;2.93;;;;;;;30.32;42.67;64053.94;5093860;28;20197;-75
2022/05/17 10:47:02;;;;;;;4.67;2.93;;;;;;;29.83;43.59;64001.03;5094038;28;20205;-75
2022/05/17 10:49:40;;;;;;;6.60;2.63;;;;;;;30.63;43.39;64081.94;5093797;28;20202;-74
2022/05/17 10:52:22;;;;;;;12.47;3.23;;;;;;;31.02;40.53;64131.84;5094335;28;20325;-74
2022/05/17 10:54:59;;;;;;;9.93;3.23;;;;;;;31.55;40.17;64187.09;5093140;28;20264;-74
2022/05/17 10:57:34;;;;;;;6.80;2.97;;;;;;;32.02;38.23;64237.91;5093773;28;20241;-75
2022/05/17 11:00:09;;;;;;;3.83;2.70;;;;;;;32.12;38.02;64248.81;5093785;28;20252;-74
2022/05/17 11:03:10;;;;;;;6.07;3.33;;;;;;;32.12;38.80;64252.00;5093697;28;20234;-75
2022/05/17 11:05:53;;;;;;;5.77;3.00;;;;;;;32.50;38.57;64289.81;5050233;28;20645;-74
2022/05/17 11:08:26;;;;;;;5.87;3.13;;;;;;;32.58;36.51;64299.09;5093796;28;20288;-74
2022/05/17 11:11:11;;;;;;;3.27;2.40;;;;;;;32.08;35.94;64242.34;5093770;28;20201;-74
2022/05/17 11:13:46;;;;;;;2.70;2.23;;;;;;;31.73;37.49;64203.56;5093337;28;20257;-75
2022/05/17 11:16:20;;;;;;;10.83;3.10;;;;;;;31.71;39.07;64204.56;5093338;28;20219;-74
2022/05/17 11:18:53;;;;;;;4.63;2.73;;;;;;;31.87;38.93;64219.41;5093309;28;20687;-74
2022/05/17 11:21:24;;;;;;;4.53;2.47;;;;;;;32.05;37.02;64239.09;5093529;28;20205;-74
2022/05/17 11:23:55;;;;;;;4.27;2.50;;;;;;;32.13;35.87;64249.91;5093309;28;20193;-74
2022/05/17 11:26:47;;;;;;;3.00;2.57;;;;;;;31.81;36.10;64215.50;5093392;28;20228;-74
2022/05/17 11:29:39;;;;;;;5.00;2.00;;;;;;;31.04;37.16;64126.69;5093007;28;20203;-73
2022/05/17 11:32:22;;;;;;;5.83;2.20;;;;;;;31.12;40.08;64142.78;5083095;28;20630;-73
2022/05/17 11:34:53;;;;;;;7.20;2.43;;;;;;;31.75;38.85;64203.69;5093057;28;20201;-74
2022/05/17 11:37:47;;;;;;;4.57;2.43;;;;;;;32.10;36.47;64247.19;5093062;28;20197;-74
2022/05/17 11:40:56;;;;;;;11.10;2.70;;;;;;;32.40;37.09;64279.94;5092944;28;20238;-75
2022/05/17 11:43:41;;;;;;;4.37;2.37;;;;;;;32.61;37.86;64299.75;5087882;28;20699;-74
2022/05/17 11:46:54;;;;;;;4.43;2.13;;;;;;;32.22;35.93;64260.28;5091828;28;20364;-74